createdAt,value
2022-08-30T00:03:53.668Z,100678.16
2022-08-30T00:08:56.119Z,100683.94
2022-08-30T00:13:58.274Z,100680.97
2022-08-30T00:19:00.557Z,100682.81
2022-08-30T00:24:02.313Z,100678.53
2022-08-30T00:29:04.006Z,100678.03
2022-08-30T00:34:05.583Z,100678.31
2022-08-30T00:39:07.199Z,100682.81
2022-08-30T00:44:08.787Z,100692.97
2022-08-30T00:49:11.552Z,100692.09
2022-08-30T00:54:13.808Z,100691.47
2022-08-30T00:59:15.694Z,100686.03
2022-08-30T01:04:19.992Z,100681.97
2022-08-30T01:09:21.894Z,100676.03
2022-08-30T01:14:25.855Z,100685.50
2022-08-30T01:19:36.577Z,100679.78
2022-08-30T01:24:38.240Z,100685.28
2022-08-30T01:29:39.947Z,100668.06
2022-08-30T01:34:41.795Z,100676.16
2022-08-30T01:39:46.064Z,100673.63
2022-08-30T01:44:48.839Z,100679.25
2022-08-30T01:49:50.474Z,100684.28
2022-08-30T01:54:52.586Z,100685.31
2022-08-30T01:59:54.749Z,100682.47
2022-08-30T02:04:56.742Z,100691.03
2022-08-30T02:10:00.062Z,100688.47
2022-08-30T02:15:01.845Z,100682.28
2022-08-30T02:20:05.418Z,100687.50
2022-08-30T02:25:09.828Z,100680.66
2022-08-30T02:30:22.718Z,100691.53
2022-08-30T02:35:24.482Z,100689.78
2022-08-30T02:40:26.213Z,100692.72
2022-08-30T02:45:28.122Z,100687.13
2022-08-30T02:50:29.733Z,100689.16
2022-08-30T02:55:31.365Z,100684.06
2022-08-30T03:00:32.982Z,100692.91
2022-08-30T03:05:35.068Z,100687.38
2022-08-30T03:10:39.507Z,100689.28
2022-08-30T03:15:41.136Z,100691.25
2022-08-30T03:20:44.034Z,100685.69
2022-08-30T03:25:55.598Z,100689.63
2022-08-30T03:30:57.256Z,100690.84
2022-08-30T03:35:58.870Z,100685.97
2022-08-30T03:41:00.519Z,100679.22
2022-08-30T03:46:03.065Z,100673.47
2022-08-30T03:51:05.983Z,100674.47
2022-08-30T03:56:07.748Z,100670.78
2022-08-30T04:01:09.334Z,100672.22
2022-08-30T04:06:11.028Z,100671.44
2022-08-30T04:11:14.962Z,100678.25
2022-08-30T04:16:17.292Z,100686.38
2022-08-30T04:21:19.353Z,100688.63
2022-08-30T04:26:21.324Z,100692.81
2022-08-30T04:31:22.955Z,100701.06
2022-08-30T04:36:24.648Z,100697.06
2022-08-30T04:41:26.235Z,100711.06
2022-08-30T04:46:27.775Z,100710.09
2022-08-30T04:51:29.380Z,100722.41
2022-08-30T04:56:31.045Z,100709.81
2022-08-30T05:01:36.721Z,100709.97
2022-08-30T05:06:47.478Z,100728.56
2022-08-30T05:11:49.118Z,100726.66
2022-08-30T05:16:50.703Z,100740.09
2022-08-30T05:21:52.324Z,100735.31
2022-08-30T05:26:53.894Z,100739.03
2022-08-30T05:31:55.494Z,100743.06
2022-08-30T05:36:57.171Z,100746.91
2022-08-30T05:41:59.439Z,100745.63
2022-08-30T05:47:01.058Z,100750.78
2022-08-30T05:52:04.180Z,100745.66
2022-08-30T05:57:05.786Z,100748.03
2022-08-30T06:02:07.438Z,100751.22
2022-08-30T06:07:11.675Z,100760.09
2022-08-30T06:12:16.126Z,100766.34
2022-08-30T06:17:17.691Z,100761.66
2022-08-30T06:22:19.229Z,100754.09
2022-08-30T06:27:20.803Z,100749.88
2022-08-30T06:32:22.554Z,100753.00
2022-08-30T06:37:29.792Z,100754.97
2022-08-30T06:42:33.393Z,100746.28
2022-08-30T06:47:34.984Z,100734.97
2022-08-30T06:52:36.681Z,100740.53
2022-08-30T06:57:38.408Z,100736.28
2022-08-30T07:02:40.362Z,100743.50
2022-08-30T07:07:41.959Z,100747.75
2022-08-30T07:12:43.548Z,100744.03
2022-08-30T07:18:03.657Z,100742.34
2022-08-30T07:23:05.436Z,100743.09
2022-08-30T07:28:08.059Z,100747.56
2022-08-30T07:33:09.739Z,100755.63
2022-08-30T07:38:14.666Z,100774.38
2022-08-30T07:43:16.362Z,100767.88
2022-08-30T07:48:18.032Z,100774.91
2022-08-30T07:53:19.785Z,100762.97
2022-08-30T07:58:21.680Z,100766.19
2022-08-30T08:03:23.259Z,100767.09
2022-08-30T08:08:25.178Z,100762.56
2022-08-30T08:13:28.028Z,100760.47
2022-08-30T08:18:34.422Z,100750.47
2022-08-30T08:23:35.953Z,100767.44
2022-08-30T08:28:37.511Z,100767.25
2022-08-30T08:33:39.085Z,100760.00
2022-08-30T08:38:40.794Z,100762.31
2022-08-30T08:43:42.476Z,100762.13
2022-08-30T08:49:00.084Z,100758.66
2022-08-30T08:54:12.770Z,100757.81
2022-08-30T08:59:15.508Z,100757.50
2022-08-30T09:04:27.492Z,100750.38
2022-08-30T09:09:35.721Z,100750.41
2022-08-30T09:14:46.108Z,100752.13
2022-08-30T09:19:54.639Z,100752.75
2022-08-30T09:25:04.689Z,100740.66
2022-08-30T09:30:17.944Z,100741.72
2022-08-30T09:35:22.798Z,100742.13
2022-08-30T09:40:38.324Z,100737.31
2022-08-30T09:45:42.931Z,100737.78
2022-08-30T09:50:46.336Z,100745.97
2022-08-30T09:55:55.906Z,100736.72
2022-08-30T10:01:09.395Z,100728.75
2022-08-30T10:06:52.999Z,100718.28
2022-08-30T10:12:09.697Z,100724.16
2022-08-30T10:17:19.625Z,100732.56
2022-08-30T10:22:58.867Z,100723.28
2022-08-30T10:28:11.251Z,100723.53
2022-08-30T10:33:25.397Z,100721.47
2022-08-30T10:38:36.665Z,100717.00
2022-08-30T10:43:59.865Z,100709.06
2022-08-30T10:49:03.733Z,100717.84
2022-08-30T10:54:37.146Z,100705.41
2022-08-30T10:59:45.607Z,100705.22
2022-08-30T11:05:00.582Z,100703.13
2022-08-30T11:10:20.433Z,100700.34
2022-08-30T11:15:26.045Z,100696.81
2022-08-30T11:20:35.826Z,100700.19
2022-08-30T11:31:23.586Z,100692.53
2022-08-30T11:36:28.286Z,100694.91
2022-08-30T11:41:46.091Z,100690.56
2022-08-30T11:46:50.841Z,100692.38
2022-08-30T11:52:28.634Z,100680.72
2022-08-30T11:57:41.845Z,100680.06
2022-08-30T12:03:01.085Z,100676.19
2022-08-30T12:08:09.418Z,100666.31
2022-08-30T12:13:42.678Z,100660.34
2022-08-30T12:18:49.010Z,100660.59
2022-08-30T12:24:15.576Z,100660.34
2022-08-30T12:29:26.714Z,100660.75
2022-08-30T12:34:36.850Z,100671.03
2022-08-30T12:39:43.294Z,100668.94
2022-08-30T12:44:45.781Z,100657.25
2022-08-30T12:49:48.912Z,100653.88
2022-08-30T12:54:51.956Z,100656.56
2022-08-30T13:00:01.746Z,100659.50
2022-08-30T13:05:34.415Z,100644.81
2022-08-30T13:10:36.378Z,100641.03
2022-08-30T13:15:42.478Z,100648.72
2022-08-30T13:20:44.715Z,100634.72
2022-08-30T13:25:46.308Z,100646.63
2022-08-30T13:30:47.901Z,100649.41
2022-08-30T13:35:49.562Z,100647.78
2022-08-30T13:40:51.376Z,100639.75
2022-08-30T13:45:53.618Z,100639.78
2022-08-30T13:50:55.464Z,100642.34
2022-08-30T13:55:57.064Z,100629.69
2022-08-30T14:01:00.066Z,100628.66
2022-08-30T14:06:29.370Z,100630.13
2022-08-30T14:11:23.340Z,100623.81
2022-08-30T14:16:28.256Z,100621.66
2022-08-30T14:21:30.346Z,100619.78
2022-08-30T14:26:40.878Z,100612.13
2022-08-30T14:31:43.236Z,100614.13
2022-08-30T14:36:46.093Z,100615.28
2022-08-30T14:41:53.849Z,100608.22
2022-08-30T14:46:57.006Z,100607.19
2022-08-30T14:51:58.878Z,100608.88
2022-08-30T14:57:00.487Z,100615.88
2022-08-30T15:02:02.087Z,100604.53
2022-08-30T15:07:04.007Z,100603.66
2022-08-30T15:12:05.875Z,100603.06
2022-08-30T15:17:09.325Z,100603.94
2022-08-30T15:22:11.037Z,100597.25
2022-08-30T15:27:12.650Z,100603.06
2022-08-30T15:32:14.267Z,100590.97
2022-08-30T15:37:22.290Z,100598.63
2022-08-30T15:42:24.006Z,100570.94
2022-08-30T15:47:25.579Z,100588.59
2022-08-30T15:52:27.319Z,100583.63
2022-08-30T15:57:29.001Z,100589.47
2022-08-30T16:02:30.686Z,100590.53
2022-08-30T16:07:32.376Z,100591.97
2022-08-30T16:12:33.925Z,100591.41
2022-08-30T16:17:35.997Z,100593.28
2022-08-30T16:22:38.216Z,100585.28
2022-08-30T16:27:42.938Z,100585.75
2022-08-30T16:32:45.886Z,100573.59
2022-08-30T16:37:47.556Z,100574.88
2022-08-30T16:42:50.675Z,100578.69
2022-08-30T16:47:52.234Z,100579.53
2022-08-30T16:52:54.778Z,100576.16
2022-08-30T16:57:56.719Z,100565.47
2022-08-30T17:02:58.797Z,100566.97
2022-08-30T17:08:00.411Z,100577.41
2022-08-30T17:13:05.356Z,100579.34
2022-08-30T17:18:07.019Z,100588.16
2022-08-30T17:23:08.604Z,100586.69
2022-08-30T17:28:10.966Z,100585.66
2022-08-30T17:33:14.967Z,100593.44
2022-08-30T17:38:19.636Z,100595.75
2022-08-30T17:43:21.333Z,100595.13
2022-08-30T17:48:22.917Z,100602.88
2022-08-30T17:53:24.778Z,100602.47
2022-08-30T17:58:26.407Z,100608.13
2022-08-30T18:03:28.911Z,100613.78
2022-08-30T18:08:30.654Z,100621.09
2022-08-30T18:13:32.330Z,100615.88
2022-08-30T18:18:33.959Z,100630.75
2022-08-30T18:23:35.614Z,100627.81
2022-08-30T18:28:37.243Z,100625.94
2022-08-30T18:33:38.865Z,100630.94
2022-08-30T18:38:42.513Z,100634.50
2022-08-30T18:43:44.826Z,100644.16
2022-08-30T18:48:47.480Z,100645.63
2022-08-30T18:53:50.065Z,100647.88
2022-08-30T18:58:51.696Z,100655.44
2022-08-30T19:03:53.610Z,100654.59
2022-08-30T19:08:55.683Z,100655.81
2022-08-30T19:13:57.565Z,100654.16
2022-08-30T19:18:59.345Z,100650.94
2022-08-30T19:24:01.017Z,100651.59
2022-08-30T19:29:02.622Z,100657.81
2022-08-30T19:34:04.297Z,100662.81
2022-08-30T19:39:07.215Z,100663.88
2022-08-30T19:44:09.577Z,100660.25
2022-08-30T19:49:11.498Z,100658.34
2022-08-30T19:54:14.379Z,100653.13
2022-08-30T19:59:16.647Z,100653.69
2022-08-30T20:04:18.270Z,100649.53
2022-08-30T20:09:22.223Z,100649.28
2022-08-30T20:14:23.996Z,100656.13
2022-08-30T20:19:27.342Z,100650.88
2022-08-30T20:24:31.009Z,100648.38
2022-08-30T20:29:34.438Z,100658.84
2022-08-30T20:34:36.309Z,100655.41
2022-08-30T20:39:38.093Z,100652.25
2022-08-30T20:44:39.930Z,100660.25
2022-08-30T20:49:41.534Z,100661.22
2022-08-30T20:54:46.173Z,100673.78
2022-08-30T20:59:47.747Z,100673.84
2022-08-30T21:04:50.327Z,100685.88
2022-08-30T21:09:53.924Z,100682.56
2022-08-30T21:14:55.493Z,100696.38
2022-08-30T21:19:57.347Z,100682.41
2022-08-30T21:24:58.909Z,100683.53
2022-08-30T21:30:00.603Z,100672.97
2022-08-30T21:35:20.530Z,100682.91
2022-08-30T21:40:22.226Z,100674.50
2022-08-30T21:45:24.046Z,100684.53
2022-08-30T21:50:25.674Z,100686.19
2022-08-30T21:55:27.284Z,100687.94
2022-08-30T22:00:28.906Z,100681.34
2022-08-30T22:05:30.514Z,100689.97
2022-08-30T22:10:33.421Z,100699.75
2022-08-30T22:15:35.139Z,100706.72
2022-08-30T22:20:36.688Z,100710.44
2022-08-30T22:25:38.308Z,100702.22
2022-08-30T22:30:40.157Z,100706.75
2022-08-30T22:35:42.586Z,100701.22
2022-08-30T22:40:49.103Z,100689.94
2022-08-30T22:45:50.934Z,100695.50
2022-08-30T22:50:52.615Z,100700.28
2022-08-30T22:55:54.262Z,100706.03
2022-08-30T23:00:56.393Z,100710.84
2022-08-30T23:05:58.150Z,100707.34
2022-08-30T23:10:59.759Z,100711.59
2022-08-30T23:16:05.180Z,100719.84
2022-08-30T23:21:11.749Z,100718.22
2022-08-30T23:26:31.942Z,100709.72
2022-08-30T23:31:52.102Z,100714.31
2022-08-30T23:37:12.281Z,100703.28
2022-08-30T23:42:33.309Z,100712.63
2022-08-30T23:47:53.465Z,100707.53
2022-08-30T23:53:13.603Z,100707.72
2022-08-30T23:58:33.525Z,100698.84
